Time;durP1;ratioP1;P1;durP2;ratioP2;P2;SDS_P1;SDS_P2;PMS_P1;PMS_P2;Temp;Humidity;BMP_temperature;BMP_pressure;BME280_temperature;BME280_humidity;BME280_pressure;Samples;Min_cycle;Max_cycle;Signal;HPM_P1;HPM_P2
2022/03/04 00:00:54;;;;;;;7.47;2.20;;;;;;;12.52;nan;102094.44;4864699;29;20455;-92
2022/03/04 00:03:22;;;;;;;11.03;2.23;;;;;;;12.55;nan;102107.78;4865678;29;22101;-91
2022/03/04 00:05:51;;;;;;;13.27;1.97;;;;;;;12.43;nan;102083.50;4871118;29;20466;-90
2022/03/04 00:08:19;;;;;;;16.53;2.10;;;;;;;12.53;nan;102098.88;4887875;29;20457;-94
2022/03/04 00:10:48;;;;;;;13.03;2.03;;;;;;;12.44;nan;102071.50;4868361;29;20438;-90
2022/03/04 00:13:18;;;;;;;13.70;2.63;;;;;;;12.52;nan;102106.25;4864436;29;20965;-91
2022/03/04 00:15:50;;;;;;;15.53;2.03;;;;;;;12.40;nan;102074.75;4880259;29;20518;-91
2022/03/04 00:18:20;;;;;;;8.63;1.93;;;;;;;12.43;nan;102088.97;4874007;29;20461;-92
2022/03/04 00:20:51;;;;;;;8.30;2.17;;;;;;;12.44;nan;102079.72;4882659;29;20514;-91
2022/03/04 00:23:21;;;;;;;16.80;2.00;;;;;;;12.37;nan;102066.88;4897900;29;20442;-89
2022/03/04 00:25:49;;;;;;;19.13;3.03;;;;;;;12.44;nan;102071.50;4883143;29;20464;-90
2022/03/04 00:28:17;;;;;;;16.03;3.07;;;;;;;12.41;nan;102069.09;4867419;29;20456;-89
2022/03/04 00:30:46;;;;;;;11.17;1.73;;;;;;;12.37;nan;102070.47;4882777;29;20466;-90
2022/03/04 00:33:14;;;;;;;11.63;2.23;;;;;;;12.37;nan;102073.19;4898106;29;20508;-89
2022/03/04 00:35:43;;;;;;;22.30;2.83;;;;;;;12.33;nan;102066.34;4864151;29;20530;-88
2022/03/04 00:38:12;;;;;;;16.73;2.80;;;;;;;12.32;nan;102072.00;4880127;29;20520;-89
2022/03/04 00:40:40;;;;;;;8.40;2.00;;;;;;;12.30;nan;102072.19;4879140;29;20456;-89
2022/03/04 00:43:08;;;;;;;15.10;3.80;;;;;;;12.23;nan;102081.28;4878031;29;20474;-88
2022/03/04 00:45:35;;;;;;;15.20;2.33;;;;;;;12.22;nan;102080.41;4879156;29;20459;-89
2022/03/04 00:48:04;;;;;;;13.03;2.63;;;;;;;12.20;nan;102092.56;4882229;29;20450;-92
2022/03/04 00:50:33;;;;;;;12.57;2.40;;;;;;;12.18;nan;102092.75;4867272;29;20434;-89
2022/03/04 00:53:02;;;;;;;9.03;2.20;;;;;;;12.19;nan;102080.75;4871626;29;20497;-89
2022/03/04 00:55:31;;;;;;;10.70;2.53;;;;;;;12.19;nan;102075.28;4871575;29;20462;-90
2022/03/04 00:57:59;;;;;;;15.63;1.97;;;;;;;12.14;nan;102076.81;4863165;29;20495;-89
2022/03/04 01:00:26;;;;;;;14.20;2.30;;;;;;;12.10;nan;102070.84;4878587;29;20455;-90
2022/03/04 01:02:55;;;;;;;11.73;3.20;;;;;;;12.00;nan;102051.81;4888354;29;20488;-88
2022/03/04 01:05:23;;;;;;;10.20;2.07;;;;;;;12.12;nan;102078.88;4867175;29;20960;-89
2022/03/04 01:07:51;;;;;;;9.57;2.70;;;;;;;12.06;nan;102066.72;4866829;29;20462;-89
2022/03/04 01:10:19;;;;;;;20.07;2.97;;;;;;;12.10;nan;102070.84;4882249;29;20460;-90
2022/03/04 01:12:48;;;;;;;9.50;1.70;;;;;;;12.13;nan;102078.69;4873953;29;20469;-90
2022/03/04 01:15:16;;;;;;;15.80;2.20;;;;;;;12.13;nan;102070.47;4863804;29;20443;-90
2022/03/04 01:17:44;;;;;;;9.10;2.07;;;;;;;12.08;nan;102070.16;4853829;29;20954;-89
2022/03/04 01:20:13;;;;;;;10.43;1.90;;;;;;;12.01;nan;102055.41;4878816;29;20930;-89
2022/03/04 01:22:41;;;;;;;12.87;2.20;;;;;;;12.09;nan;102082.81;4862849;29;20489;-91
2022/03/04 01:25:11;;;;;;;8.03;1.80;;;;;;;12.05;nan;102089.66;4878356;29;20458;-90
2022/03/04 01:27:39;;;;;;;14.80;2.57;;;;;;;12.04;nan;102071.50;4878900;29;20458;-91
2022/03/04 01:30:08;;;;;;;7.47;1.67;;;;;;;12.08;nan;102078.38;4880113;29;20465;-90
2022/03/04 01:32:36;;;;;;;16.90;2.30;;;;;;;12.09;nan;102074.59;4867293;29;20478;-93
2022/03/04 01:35:05;;;;;;;12.37;2.00;;;;;;;12.02;nan;102068.09;4881931;29;20458;-90
2022/03/04 01:37:37;;;;;;;10.70;2.07;;;;;;;12.00;nan;102064.66;4867190;29;20512;-89
2022/03/04 01:40:05;;;;;;;10.20;1.77;;;;;;;12.03;nan;102075.28;4865133;29;20456;-89
2022/03/04 01:42:34;;;;;;;12.43;2.70;;;;;;;12.01;nan;102083.66;4863336;29;20989;-91
2022/03/04 01:45:03;;;;;;;14.97;2.57;;;;;;;12.00;nan;102081.09;4864107;29;20461;-93
2022/03/04 01:47:31;;;;;;;16.00;2.73;;;;;;;12.00;nan;102092.06;4878128;29;20494;-89
2022/03/04 01:49:59;;;;;;;10.47;2.10;;;;;;;11.95;nan;102067.03;4848215;29;20463;-90
2022/03/04 01:52:27;;;;;;;7.43;1.90;;;;;;;11.94;nan;102088.09;4848291;29;20451;-90
2022/03/04 01:54:56;;;;;;;7.80;1.97;;;;;;;11.92;nan;102075.63;4867186;29;20458;-90
2022/03/04 01:57:23;;;;;;;11.47;1.83;;;;;;;11.89;nan;102068.59;4862806;29;20530;-90
2022/03/04 01:59:51;;;;;;;9.83;2.30;;;;;;;12.02;nan;102090.00;4866115;29;20457;-90
2022/03/04 02:02:19;;;;;;;13.93;1.80;;;;;;;11.93;nan;102063.63;4880138;29;20852;-91
2022/03/04 02:04:50;;;;;;;9.50;2.03;;;;;;;11.98;nan;102075.78;4897542;29;20453;-92
2022/03/04 02:07:18;;;;;;;8.13;2.10;;;;;;;11.94;nan;102081.75;4866101;29;20454;-92
2022/03/04 02:09:47;;;;;;;14.63;2.27;;;;;;;11.85;nan;102060.88;4868989;29;20458;-90
2022/03/04 02:12:15;;;;;;;9.33;2.23;;;;;;;11.96;nan;102082.44;4885838;29;20441;-92
2022/03/04 02:14:43;;;;;;;6.63;1.80;;;;;;;11.89;nan;102073.22;4866548;29;20962;-89
2022/03/04 02:17:11;;;;;;;21.03;2.50;;;;;;;11.87;nan;102067.06;4866318;29;20459;-89
2022/03/04 02:19:38;;;;;;;17.97;2.40;;;;;;;11.86;nan;102085.38;4851323;29;20942;-89
2022/03/04 02:22:07;;;;;;;14.40;2.97;;;;;;;11.89;nan;102057.66;4870068;29;20513;-89
2022/03/04 02:24:35;;;;;;;12.90;2.30;;;;;;;11.88;nan;102066.03;4884400;29;20457;-92
2022/03/04 02:27:03;;;;;;;11.70;2.03;;;;;;;11.79;nan;102042.38;4884937;29;20508;-89
2022/03/04 02:29:34;;;;;;;6.40;1.97;;;;;;;11.87;nan;102047.88;4870091;29;20457;-90
2022/03/04 02:32:04;;;;;;;9.80;2.50;;;;;;;11.86;nan;102040.69;4884681;29;21016;-93
2022/03/04 02:34:32;;;;;;;7.10;1.60;;;;;;;11.88;nan;102035.91;4873466;29;20462;-90
2022/03/04 02:36:59;;;;;;;19.03;2.20;;;;;;;11.84;nan;102035.38;4867709;29;21965;-89
2022/03/04 02:39:27;;;;;;;6.23;2.40;;;;;;;11.80;nan;102030.41;4866019;29;20447;-89
2022/03/04 02:41:56;;;;;;;12.73;3.50;;;;;;;11.82;nan;102023.72;4851165;29;20992;-93
2022/03/04 02:44:24;;;;;;;9.97;2.10;;;;;;;11.88;nan;102044.97;4865850;29;20461;-89
2022/03/04 02:46:52;;;;;;;11.27;2.03;;;;;;;11.86;nan;102030.59;4850980;29;20458;-91
2022/03/04 02:49:20;;;;;;;8.50;2.30;;;;;;;11.85;nan;102033.50;4866149;29;20514;-90
2022/03/04 02:51:48;;;;;;;10.40;2.00;;;;;;;11.81;nan;102011.06;4850505;29;20469;-90
2022/03/04 02:54:17;;;;;;;12.00;1.80;;;;;;;11.81;nan;102012.94;4872286;29;20970;-89
2022/03/04 02:56:45;;;;;;;14.17;2.80;;;;;;;11.79;nan;102013.09;4875834;29;20462;-89
2022/03/04 02:59:12;;;;;;;10.90;1.90;;;;;;;11.82;nan;102020.13;4865738;29;20463;-89
2022/03/04 03:01:41;;;;;;;13.27;3.20;;;;;;;11.77;nan;102004.19;4865707;29;20518;-88
2022/03/04 03:04:09;;;;;;;9.63;2.13;;;;;;;11.71;nan;102005.72;4887721;29;20461;-89
2022/03/04 03:06:36;;;;;;;18.53;2.60;;;;;;;11.75;nan;102019.91;4882511;29;20475;-89
2022/03/04 03:09:04;;;;;;;11.63;2.30;;;;;;;11.71;nan;102021.31;4883765;29;20477;-89
2022/03/04 03:11:32;;;;;;;12.30;2.03;;;;;;;11.72;nan;102012.91;4869447;29;20490;-90
2022/03/04 03:14:01;;;;;;;17.73;3.33;;;;;;;11.66;nan;102008.13;4878233;29;20466;-93
2022/03/04 03:16:28;;;;;;;14.53;2.30;;;;;;;11.71;nan;101999.41;4865530;29;20510;-90
2022/03/04 03:18:57;;;;;;;8.17;1.90;;;;;;;11.70;nan;102006.75;4865588;29;20466;-89
2022/03/04 03:21:25;;;;;;;11.67;2.27;;;;;;;11.67;nan;101987.91;4864889;29;20461;-89
2022/03/04 03:23:52;;;;;;;15.70;2.77;;;;;;;11.75;nan;102007.06;4866346;29;20479;-92
2022/03/04 03:26:20;;;;;;;17.40;3.47;;;;;;;11.73;nan;101991.88;4865342;29;20454;-89
2022/03/04 03:28:49;;;;;;;11.07;2.27;;;;;;;11.71;nan;102000.25;4849974;29;20508;-91
2022/03/04 03:31:17;;;;;;;10.27;2.30;;;;;;;11.69;nan;102002.31;4850496;29;20482;-90
2022/03/04 03:33:45;;;;;;;6.83;1.70;;;;;;;11.74;nan;101999.88;4868460;29;20464;-91
2022/03/04 03:36:13;;;;;;;12.33;2.47;;;;;;;11.61;nan;101982.25;4868643;29;20457;-91
2022/03/04 03:38:45;;;;;;;12.33;2.70;;;;;;;11.59;nan;101996.13;4892300;29;20506;-90
2022/03/04 03:41:17;;;;;;;12.90;2.30;;;;;;;11.59;nan;101978.81;4898911;29;20469;-90
2022/03/04 03:43:45;;;;;;;13.80;2.37;;;;;;;11.69;nan;101991.34;4881707;29;20890;-90
2022/03/04 03:46:13;;;;;;;8.90;2.83;;;;;;;11.65;nan;101989.97;4884158;29;20500;-90
2022/03/04 03:48:41;;;;;;;10.87;2.50;;;;;;;11.63;nan;101986.53;4827376;29;20504;-89
2022/03/04 03:51:09;;;;;;;12.53;2.37;;;;;;;11.54;nan;101965.69;4812600;29;20453;-90
2022/03/04 03:53:37;;;;;;;11.80;2.30;;;;;;;11.57;nan;101975.41;4812225;29;20453;-92
2022/03/04 03:56:05;;;;;;;16.43;2.17;;;;;;;11.58;nan;101991.66;4813317;29;20475;-90
2022/03/04 03:58:33;;;;;;;12.73;2.23;;;;;;;11.48;nan;101988.25;4827350;29;20464;-90
2022/03/04 04:01:02;;;;;;;17.80;2.40;;;;;;;11.58;nan;101994.41;4827840;29;20457;-90
2022/03/04 04:03:32;;;;;;;9.90;2.17;;;;;;;11.62;nan;102004.00;4812572;29;20481;-90
2022/03/04 04:05:59;;;;;;;15.27;2.70;;;;;;;11.63;nan;102013.94;4818976;29;20488;-91
2022/03/04 04:08:27;;;;;;;7.37;2.30;;;;;;;11.62;nan;102011.34;4866063;29;20445;-90
2022/03/04 04:10:55;;;;;;;7.83;1.67;;;;;;;11.52;nan;101999.72;4883205;29;20457;-90
2022/03/04 04:13:24;;;;;;;10.40;2.13;;;;;;;11.54;nan;101995.78;4867770;29;20880;-91
2022/03/04 04:15:51;;;;;;;9.70;2.33;;;;;;;11.52;nan;101984.16;4867355;29;20469;-91
2022/03/04 04:18:20;;;;;;;6.80;2.20;;;;;;;11.54;nan;101986.72;4883323;29;20453;-91
2022/03/04 04:20:48;;;;;;;13.43;2.03;;;;;;;11.56;nan;101990.97;4882774;29;20462;-90
2022/03/04 04:23:15;;;;;;;21.50;3.23;;;;;;;11.46;nan;101984.81;4867847;29;20969;-91
2022/03/04 04:25:43;;;;;;;10.53;2.23;;;;;;;11.56;nan;101995.59;4868081;29;20454;-91
2022/03/04 04:28:11;;;;;;;6.77;1.50;;;;;;;11.55;nan;102004.84;4864852;29;20447;-90
2022/03/04 04:30:39;;;;;;;14.53;1.87;;;;;;;11.47;nan;101986.53;4864005;29;20470;-91
2022/03/04 04:33:09;;;;;;;14.40;2.30;;;;;;;11.48;nan;101988.25;4863951;29;20450;-91
2022/03/04 04:35:38;;;;;;;19.13;2.50;;;;;;;11.44;nan;101986.88;4848772;29;20459;-89
2022/03/04 04:38:05;;;;;;;10.33;3.87;;;;;;;11.49;nan;101986.38;4849420;29;20516;-90
2022/03/04 04:40:33;;;;;;;8.37;2.00;;;;;;;11.42;nan;101967.00;4864381;29;20458;-90
2022/03/04 04:43:01;;;;;;;12.70;2.50;;;;;;;11.48;nan;101976.44;4848555;29;20493;-90
2022/03/04 04:45:31;;;;;;;15.70;3.03;;;;;;;11.49;nan;102003.66;4865096;29;20467;-92
2022/03/04 04:47:59;;;;;;;11.20;1.70;;;;;;;11.53;nan;101994.06;4870976;29;20457;-90
2022/03/04 04:50:27;;;;;;;11.63;2.20;;;;;;;11.44;nan;101984.13;4882557;29;20454;-90
2022/03/04 04:52:55;;;;;;;13.37;2.50;;;;;;;11.45;nan;101983.09;4866556;29;20513;-90
2022/03/04 04:55:25;;;;;;;14.53;2.93;;;;;;;11.54;nan;101998.53;4871207;29;20957;-91
2022/03/04 04:57:53;;;;;;;14.17;2.20;;;;;;;11.45;nan;101980.38;4897999;29;20461;-90
2022/03/04 05:00:20;;;;;;;16.00;3.10;;;;;;;11.46;nan;101979.34;4867172;29;20458;-91
2022/03/04 05:02:49;;;;;;;5.90;1.70;;;;;;;11.48;nan;101985.50;4861476;29;20485;-90
2022/03/04 05:05:18;;;;;;;20.23;2.57;;;;;;;11.52;nan;101995.09;4887035;29;20454;-90
2022/03/04 05:07:46;;;;;;;15.47;2.33;;;;;;;11.41;nan;101987.19;4857144;29;20453;-93
2022/03/04 05:10:14;;;;;;;13.77;2.30;;;;;;;11.41;nan;101989.94;4867465;29;20454;-90
2022/03/04 05:12:43;;;;;;;11.83;1.90;;;;;;;11.49;nan;101995.44;4897358;29;20460;-89
2022/03/04 05:15:14;;;;;;;15.50;2.80;;;;;;;11.48;nan;102010.16;4877226;29;20873;-90
2022/03/04 05:17:41;;;;;;;16.50;2.27;;;;;;;11.48;nan;101993.72;4894617;29;20455;-90
2022/03/04 05:20:10;;;;;;;15.23;2.53;;;;;;;11.40;nan;102013.72;4848484;29;20454;-92
2022/03/04 05:22:37;;;;;;;12.07;2.50;;;;;;;11.40;nan;102021.94;4855906;29;20458;-90
2022/03/04 05:25:06;;;;;;;11.37;2.23;;;;;;;11.39;nan;102019.34;4882203;29;20510;-89
2022/03/04 05:27:34;;;;;;;13.90;2.43;;;;;;;11.39;nan;102024.81;4863399;29;20522;-93
2022/03/04 05:30:01;;;;;;;12.63;3.27;;;;;;;11.40;nan;102018.34;4895943;29;20461;-89
2022/03/04 05:32:29;;;;;;;11.73;3.20;;;;;;;11.42;nan;102028.09;4848767;29;20491;-89
2022/03/04 05:34:58;;;;;;;16.23;2.10;;;;;;;11.37;nan;102021.41;4871108;29;20454;-93
2022/03/04 05:37:27;;;;;;;10.73;2.70;;;;;;;11.41;nan;102031.00;4897190;29;20445;-92
2022/03/04 05:39:55;;;;;;;13.87;2.30;;;;;;;11.41;nan;102026.38;4880509;29;20457;-90
2022/03/04 05:42:23;;;;;;;5.40;2.10;;;;;;;11.35;nan;102031.69;4880985;29;20464;-90
2022/03/04 05:44:51;;;;;;;7.50;1.77;;;;;;;11.35;nan;102039.91;4865626;29;20450;-89
2022/03/04 05:47:19;;;;;;;10.70;2.77;;;;;;;11.36;nan;102038.84;4858154;29;20452;-90
2022/03/04 05:49:48;;;;;;;19.10;3.30;;;;;;;11.34;nan;102029.97;4900982;29;20512;-90
2022/03/04 05:52:16;;;;;;;10.13;1.40;;;;;;;11.36;nan;102033.38;4885449;29;20450;-89
2022/03/04 05:54:44;;;;;;;12.23;4.03;;;;;;;11.33;nan;102033.72;4885260;29;20446;-90
2022/03/04 05:57:11;;;;;;;21.67;2.50;;;;;;;11.30;nan;102029.44;4885491;29;20461;-89
2022/03/04 05:59:39;;;;;;;10.40;1.70;;;;;;;11.34;nan;102035.44;4885438;29;20449;-90
2022/03/04 06:02:06;;;;;;;17.43;2.90;;;;;;;11.29;nan;102038.69;4900502;29;20463;-90
2022/03/04 06:04:36;;;;;;;15.20;2.50;;;;;;;11.33;nan;102040.06;4915666;29;20497;-90
2022/03/04 06:07:04;;;;;;;20.87;2.60;;;;;;;11.29;nan;102038.69;4899242;29;20794;-90
2022/03/04 06:09:32;;;;;;;12.80;2.70;;;;;;;11.28;nan;102042.44;4868236;29;20465;-91
2022/03/04 06:12:02;;;;;;;12.03;2.37;;;;;;;11.28;nan;102042.44;4868838;29;20444;-91
2022/03/04 06:14:30;;;;;;;10.93;1.73;;;;;;;11.27;nan;102034.38;4883756;29;21019;-89
2022/03/04 06:16:58;;;;;;;11.30;2.40;;;;;;;11.23;nan;102041.22;4883521;29;20450;-89
2022/03/04 06:19:32;;;;;;;13.80;2.27;;;;;;;11.06;nan;102012.94;4884492;29;20457;-89
2022/03/04 06:22:03;;;;;;;13.63;2.43;;;;;;;11.18;nan;102040.84;4865680;29;20445;-90
2022/03/04 06:24:32;;;;;;;9.77;1.67;;;;;;;11.07;nan;102023.72;4882599;29;20492;-89
2022/03/04 06:26:59;;;;;;;11.73;2.30;;;;;;;11.20;nan;102036.94;4884962;29;20456;-89
2022/03/04 06:29:29;;;;;;;9.40;1.80;;;;;;;11.21;nan;102032.31;4883256;29;20818;-89
2022/03/04 06:31:58;;;;;;;12.57;1.90;;;;;;;11.06;nan;102011.06;4883162;29;20477;-90
2022/03/04 06:34:28;;;;;;;7.43;1.60;;;;;;;11.14;nan;102028.53;4899169;29;20437;-88
2022/03/04 06:36:59;;;;;;;9.90;1.90;;;;;;;11.18;nan;102052.66;4883529;29;20442;-89
2022/03/04 06:39:27;;;;;;;10.17;2.17;;;;;;;11.21;nan;102029.56;4898513;29;20972;-89
2022/03/04 06:41:54;;;;;;;8.70;1.97;;;;;;;11.14;nan;102032.13;4868508;29;20449;-90
2022/03/04 06:44:25;;;;;;;9.30;2.23;;;;;;;11.11;nan;102042.56;4826722;29;20488;-90
2022/03/04 06:46:53;;;;;;;12.10;2.20;;;;;;;11.16;nan;102051.13;4827060;29;20452;-90
2022/03/04 06:49:22;;;;;;;5.50;2.07;;;;;;;11.07;nan;102058.44;4794242;29;20994;-90
2022/03/04 06:51:50;;;;;;;11.17;2.37;;;;;;;11.07;nan;102059.28;4843548;29;20464;-89
2022/03/04 06:54:21;;;;;;;7.43;1.83;;;;;;;11.08;nan;102066.47;4804676;29;20452;-90
2022/03/04 06:56:49;;;;;;;12.80;2.07;;;;;;;11.08;nan;102060.16;4838400;29;20456;-90
2022/03/04 06:59:17;;;;;;;9.00;1.93;;;;;;;11.12;nan;102066.16;4813280;29;20461;-90
2022/03/04 07:01:45;;;;;;;15.00;3.17;;;;;;;10.96;nan;102051.41;4805380;29;20810;-92
2022/03/04 07:04:13;;;;;;;10.17;2.00;;;;;;;10.96;nan;102045.06;4795170;29;20565;-90
2022/03/04 07:06:41;;;;;;;16.23;2.40;;;;;;;10.99;nan;102061.97;4817087;29;20984;-89
2022/03/04 07:09:09;;;;;;;14.17;2.27;;;;;;;11.04;nan;102062.34;4866901;29;20473;-88
2022/03/04 07:11:37;;;;;;;18.33;2.27;;;;;;;11.04;nan;102067.81;4880124;29;20880;-92
2022/03/04 07:14:04;;;;;;;12.43;1.90;;;;;;;11.06;nan;102084.94;4822054;29;20483;-89
2022/03/04 07:16:33;;;;;;;9.70;1.83;;;;;;;11.11;nan;102078.97;4804524;29;20915;-89
2022/03/04 07:19:01;;;;;;;12.90;2.27;;;;;;;11.08;nan;102073.81;4841728;29;20453;-90
2022/03/04 07:21:29;;;;;;;14.93;2.47;;;;;;;10.98;nan;102062.13;4827332;29;20476;-93
2022/03/04 07:23:58;;;;;;;7.50;1.93;;;;;;;11.02;nan;102080.81;4827642;29;20983;-91
2022/03/04 07:26:26;;;;;;;14.20;2.30;;;;;;;11.07;nan;102078.44;4828073;29;20457;-89
2022/03/04 07:28:55;;;;;;;12.03;2.40;;;;;;;11.07;nan;102089.38;4824658;29;20460;-91
2022/03/04 07:31:22;;;;;;;11.63;2.27;;;;;;;11.10;nan;102103.75;4794559;29;20971;-90
2022/03/04 07:33:53;;;;;;;16.40;3.00;;;;;;;11.07;nan;102097.59;4811331;29;20821;-89
2022/03/04 07:44:00;;;;;;;;;;;;;;;;;;;;;
2022/03/04 07:46:42;;;;;;;15.27;2.10;;;;;;;11.26;nan;102125.72;4884742;29;20450;-92
2022/03/04 07:49:15;;;;;;;6.70;1.40;;;;;;;11.26;nan;102118.38;4830434;29;20443;-91
2022/03/04 07:51:45;;;;;;;7.70;1.93;;;;;;;11.35;nan;102132.97;4828480;29;20460;-91
2022/03/04 07:54:26;;;;;;;5.30;1.80;;;;;;;11.35;nan;102124.75;4857186;29;20461;-90
2022/03/04 07:56:55;;;;;;;11.13;1.97;;;;;;;11.39;nan;102131.59;4851150;29;20460;-89
2022/03/04 07:59:23;;;;;;;10.83;1.93;;;;;;;11.41;nan;102135.03;4841911;29;20467;-89
2022/03/04 08:02:06;;;;;;;7.80;1.93;;;;;;;11.48;nan;102144.28;4860408;29;20458;-90
2022/03/04 08:04:35;;;;;;;8.33;2.00;;;;;;;11.50;nan;102147.72;4860360;29;20498;-89
2022/03/04 08:07:17;;;;;;;8.53;2.37;;;;;;;11.56;nan;102146.19;4863669;29;20437;-90
2022/03/04 08:09:46;;;;;;;15.10;2.20;;;;;;;11.59;nan;102143.97;4883679;29;20956;-89
2022/03/04 08:12:14;;;;;;;19.87;2.87;;;;;;;11.60;nan;102140.22;4867957;29;20465;-88
2022/03/04 08:14:47;;;;;;;10.23;2.47;;;;;;;11.69;nan;102133.75;4883056;29;20798;-89
2022/03/04 08:17:18;;;;;;;8.10;1.97;;;;;;;11.57;nan;102129.59;4897646;29;20529;-90
2022/03/04 08:19:46;;;;;;;13.37;2.30;;;;;;;11.72;nan;102138.91;4883588;29;20454;-90
2022/03/04 08:22:19;;;;;;;16.77;2.33;;;;;;;11.84;nan;102146.81;4867063;29;20464;-89
2022/03/04 08:24:52;;;;;;;21.67;2.50;;;;;;;11.87;nan;102154.72;4899002;29;20485;-91
2022/03/04 08:27:20;;;;;;;12.00;2.43;;;;;;;11.98;nan;102146.16;4882568;29;20964;-87
2022/03/04 08:29:48;;;;;;;26.53;2.50;;;;;;;11.87;nan;102132.81;4882636;29;20462;-88
2022/03/04 08:32:18;;;;;;;13.43;2.07;;;;;;;12.01;nan;102156.78;4866780;29;20477;-86
2022/03/04 08:34:46;;;;;;;14.77;2.40;;;;;;;12.07;nan;102148.75;4882825;29;20936;-86
2022/03/04 08:37:16;;;;;;;8.90;2.90;;;;;;;12.06;nan;102152.53;4882846;29;20948;-86
2022/03/04 08:39:43;;;;;;;9.03;1.97;;;;;;;12.13;nan;102160.91;4882474;29;20464;-92
2022/03/04 08:42:11;;;;;;;6.37;1.40;;;;;;;12.15;nan;102150.63;4866852;29;20461;-87
2022/03/04 08:44:39;;;;;;;10.13;2.00;;;;;;;12.24;nan;102155.13;4895148;29;20509;-87
2022/03/04 08:47:07;;;;;;;21.43;3.10;;;;;;;12.28;nan;102161.13;4881969;29;20473;-91
2022/03/04 08:49:35;;;;;;;7.57;2.10;;;;;;;12.34;nan;102158.53;4867567;29;20461;-91
2022/03/04 08:52:04;;;;;;;9.77;2.43;;;;;;;12.32;nan;102149.63;4882512;29;20461;-91
2022/03/04 08:54:32;;;;;;;12.37;2.10;;;;;;;12.39;nan;102158.03;4868027;29;20454;-91
2022/03/04 08:57:01;;;;;;;11.60;1.90;;;;;;;12.40;nan;102155.13;4882501;29;20945;-91
2022/03/04 08:59:29;;;;;;;10.47;2.53;;;;;;;12.47;nan;102165.41;4863505;29;20469;-90
2022/03/04 09:01:56;;;;;;;9.00;1.87;;;;;;;12.53;nan;102171.03;4879281;29;20454;-90
2022/03/04 09:04:25;;;;;;;12.47;2.13;;;;;;;12.56;nan;102170.72;4863893;29;20482;-90
2022/03/04 09:06:53;;;;;;;10.90;2.07;;;;;;;12.62;nan;102163.69;4878908;29;20450;-90
2022/03/04 09:09:21;;;;;;;11.63;2.67;;;;;;;12.61;nan;102157.34;4878820;29;20458;-90
2022/03/04 09:11:49;;;;;;;12.27;3.40;;;;;;;12.76;nan;102196.75;4863722;29;20463;-90
2022/03/04 09:14:19;;;;;;;15.83;2.97;;;;;;;12.83;nan;102187.84;4878787;29;20454;-90
2022/03/04 09:16:50;;;;;;;9.83;2.40;;;;;;;12.90;nan;102200.69;4863906;29;20455;-90
2022/03/04 09:19:19;;;;;;;15.70;3.83;;;;;;;12.86;nan;102202.06;4878229;29;20454;-90
2022/03/04 09:21:56;;;;;;;8.23;3.03;;;;;;;12.86;nan;102213.06;4878661;29;20443;-91
2022/03/04 09:24:25;;;;;;;6.37;2.10;;;;;;;12.89;nan;102207.22;4863969;29;20493;-90
2022/03/04 09:26:53;;;;;;;11.80;2.17;;;;;;;12.92;nan;102197.75;4863454;29;20945;-90
2022/03/04 09:29:21;;;;;;;14.67;2.50;;;;;;;12.96;nan;102197.25;4879029;29;20950;-91
2022/03/04 09:31:49;;;;;;;11.00;2.47;;;;;;;13.01;nan;102191.25;4863456;29;20482;-92
2022/03/04 09:34:17;;;;;;;9.43;2.50;;;;;;;13.03;nan;102184.56;4878530;29;20450;-91
2022/03/04 09:36:45;;;;;;;15.33;2.60;;;;;;;13.09;nan;102194.81;4878672;29;20798;-91
2022/03/04 09:39:14;;;;;;;9.17;1.90;;;;;;;13.15;nan;102182.31;4863494;29;20451;-91
2022/03/04 09:41:44;;;;;;;11.70;2.73;;;;;;;13.15;nan;102168.59;4878708;29;20454;-90
2022/03/04 09:44:13;;;;;;;8.10;2.00;;;;;;;13.13;nan;102171.47;4863548;29;20574;-91
2022/03/04 09:46:42;;;;;;;13.53;2.50;;;;;;;13.18;nan;102170.13;4878713;29;20442;-89
2022/03/04 09:49:11;;;;;;;8.47;2.33;;;;;;;13.25;nan;102166.50;4878459;29;20458;-91
2022/03/04 09:51:39;;;;;;;8.73;2.57;;;;;;;13.36;nan;102163.38;4863548;29;20458;-90
2022/03/04 09:54:08;;;;;;;23.07;5.40;;;;;;;13.45;nan;102167.81;4878815;29;20442;-90
2022/03/04 09:56:39;;;;;;;12.60;4.37;;;;;;;13.41;nan;102149.97;4878268;29;20454;-90
2022/03/04 09:59:07;;;;;;;12.33;4.10;;;;;;;13.63;nan;102174.94;4879608;29;20462;-90
2022/03/04 10:01:35;;;;;;;9.63;2.87;;;;;;;13.62;nan;102185.09;4878692;29;20458;-89
2022/03/04 10:04:03;;;;;;;12.60;3.43;;;;;;;13.69;nan;102177.81;4863324;29;20876;-89
2022/03/04 10:06:32;;;;;;;12.20;4.00;;;;;;;13.70;nan;102174.03;4863211;29;20949;-90
2022/03/04 10:09:00;;;;;;;13.00;2.50;;;;;;;13.70;nan;102189.66;4863260;29;20488;-90
2022/03/04 10:11:31;;;;;;;12.33;2.90;;;;;;;13.81;nan;102195.63;4863484;29;20964;-90
2022/03/04 10:14:03;;;;;;;15.70;3.53;;;;;;;13.81;nan;102176.41;4878511;29;20462;-90
2022/03/04 10:16:35;;;;;;;10.97;4.00;;;;;;;13.90;nan;102170.84;4870845;29;20517;-90
2022/03/04 10:19:21;;;;;;;7.17;2.70;;;;;;;13.90;nan;102171.69;4881582;29;20458;-91
2022/03/04 10:21:56;;;;;;;8.50;2.17;;;;;;;13.83;nan;102188.06;4881721;29;20812;-91
2022/03/04 10:24:31;;;;;;;12.33;2.10;;;;;;;13.87;nan;102195.94;4881133;29;20489;-90
2022/03/04 10:27:10;;;;;;;10.97;2.37;;;;;;;13.89;nan;102175.47;4882082;29;20936;-90
2022/03/04 10:29:47;;;;;;;15.93;2.80;;;;;;;13.91;nan;102156.06;4882538;29;20508;-90
2022/03/04 10:32:20;;;;;;;13.47;2.30;;;;;;;13.92;nan;102157.78;4884942;29;20503;-90
2022/03/04 10:35:22;;;;;;;8.27;2.10;;;;;;;14.04;nan;102189.34;4870405;29;20456;-90
2022/03/04 10:37:51;;;;;;;17.03;2.30;;;;;;;14.10;nan;102161.09;4900492;29;20450;-91
2022/03/04 10:40:35;;;;;;;14.20;2.00;;;;;;;14.13;nan;102168.97;4871084;29;20459;-91
2022/03/04 10:43:07;;;;;;;14.53;2.80;;;;;;;14.18;nan;102164.66;4884749;29;20456;-91
2022/03/04 10:45:40;;;;;;;11.80;1.90;;;;;;;14.22;nan;102172.53;4885631;29;20493;-90
2022/03/04 10:48:18;;;;;;;14.30;2.53;;;;;;;14.23;nan;102153.13;4869964;29;20457;-90
2022/03/04 10:50:50;;;;;;;12.80;2.73;;;;;;;14.22;nan;102167.03;4870396;29;20453;-90
2022/03/04 10:53:20;;;;;;;10.80;1.97;;;;;;;14.22;nan;102165.16;4884765;29;20449;-91
2022/03/04 10:55:55;;;;;;;12.10;2.30;;;;;;;14.30;nan;102136.72;4869551;29;20442;-90
2022/03/04 10:58:28;;;;;;;9.33;1.67;;;;;;;14.58;nan;102142.53;4871148;29;20453;-90
2022/03/04 11:00:59;;;;;;;6.70;1.67;;;;;;;14.62;nan;102141.13;4884718;29;20963;-90
2022/03/04 11:03:31;;;;;;;14.43;3.47;;;;;;;14.62;nan;102152.13;4884556;29;20457;-90
2022/03/04 11:06:08;;;;;;;14.83;3.77;;;;;;;14.67;nan;102141.41;4884642;29;20482;-91
2022/03/04 11:08:38;;;;;;;8.37;1.60;;;;;;;14.68;nan;102156.88;4868992;29;20465;-91
2022/03/04 11:11:10;;;;;;;9.73;2.90;;;;;;;14.63;nan;102145.56;4899541;29;20456;-90
2022/03/04 11:13:38;;;;;;;14.70;3.03;;;;;;;14.76;nan;102146.66;4884936;29;20464;-91
2022/03/04 11:16:07;;;;;;;11.10;2.10;;;;;;;14.87;nan;102142.56;4868876;29;20517;-90
2022/03/04 11:18:35;;;;;;;11.83;2.30;;;;;;;14.88;nan;102130.53;4868827;29;20453;-91
2022/03/04 11:21:04;;;;;;;4.30;1.47;;;;;;;14.83;nan;102135.72;4869127;29;20784;-90
2022/03/04 11:23:34;;;;;;;8.30;1.63;;;;;;;15.03;nan;102131.38;4869336;29;20453;-90
2022/03/04 11:26:30;;;;;;;12.57;2.20;;;;;;;15.18;nan;102140.53;4868755;29;20486;-91
2022/03/04 11:29:00;;;;;;;9.13;2.10;;;;;;;15.12;nan;102163.31;4883878;29;20458;-91
2022/03/04 11:31:28;;;;;;;8.33;1.87;;;;;;;15.19;nan;102113.84;4884081;29;20469;-91
2022/03/04 11:33:59;;;;;;;8.67;2.10;;;;;;;15.20;nan;102126.56;4883781;29;20450;-90
2022/03/04 11:36:29;;;;;;;8.60;3.03;;;;;;;15.35;nan;102121.91;4868821;29;20831;-89
2022/03/04 11:39:14;;;;;;;12.33;5.67;;;;;;;15.41;nan;102134.03;4884595;29;21019;-90
2022/03/04 11:41:47;;;;;;;16.53;6.60;;;;;;;15.54;nan;102134.22;4898459;29;20457;-91
2022/03/04 11:44:22;;;;;;;20.63;5.60;;;;;;;15.41;nan;102123.88;4898607;29;20457;-90
2022/03/04 11:47:02;;;;;;;10.60;3.73;;;;;;;15.47;nan;102127.75;4868689;29;20444;-90
2022/03/04 11:49:43;;;;;;;18.20;6.20;;;;;;;15.51;nan;102151.13;4899030;29;20453;-90
2022/03/04 11:52:20;;;;;;;12.43;3.70;;;;;;;15.41;nan;102129.38;4899939;29;20461;-90
2022/03/04 11:54:48;;;;;;;11.93;4.40;;;;;;;15.60;nan;102133.47;4884092;29;20441;-90